createdAt,value
2022-11-19T00:01:54.124Z,97886.06
2022-11-19T00:04:55.911Z,97887.00
2022-11-19T00:07:57.370Z,97891.47
2022-11-19T00:11:09.220Z,97894.97
2022-11-19T00:14:12.848Z,97891.59
2022-11-19T00:17:15.767Z,97892.38
2022-11-19T00:20:20.412Z,97887.22
2022-11-19T00:23:21.941Z,97899.53
2022-11-19T00:26:23.901Z,97893.38
2022-11-19T00:29:25.500Z,97897.69
2022-11-19T00:32:28.601Z,97892.47
2022-11-19T00:35:30.115Z,97897.75
2022-11-19T00:38:32.021Z,97897.84
2022-11-19T00:41:33.610Z,97899.53
2022-11-19T00:44:37.377Z,97902.19
2022-11-19T00:47:40.447Z,97899.44
2022-11-19T00:50:42.443Z,97903.06
2022-11-19T00:53:44.326Z,97903.09
2022-11-19T00:56:46.966Z,97903.09
2022-11-19T00:59:48.711Z,97907.44
2022-11-19T01:02:51.649Z,97907.53
2022-11-19T01:05:53.249Z,97914.41
2022-11-19T01:08:54.801Z,97915.31
2022-11-19T01:11:56.295Z,97931.09
2022-11-19T01:14:58.482Z,97928.44
2022-11-19T01:18:01.512Z,97918.97
2022-11-19T01:21:03.237Z,97918.03
2022-11-19T01:24:05.162Z,97919.72
2022-11-19T01:27:06.629Z,97917.97
2022-11-19T01:30:08.410Z,97923.19
2022-11-19T01:33:11.476Z,97928.41
2022-11-19T01:36:14.479Z,97926.72
2022-11-19T01:39:16.002Z,97928.47
2022-11-19T01:42:39.369Z,97918.97
2022-11-19T01:45:41.779Z,97933.88
2022-11-19T01:48:47.200Z,97932.13
2022-11-19T01:51:51.220Z,97937.31
2022-11-19T01:54:54.296Z,97942.50
2022-11-19T01:57:58.208Z,97931.16
2022-11-19T02:00:59.921Z,97941.56
2022-11-19T02:04:03.994Z,97950.25
2022-11-19T02:07:06.122Z,97956.41
2022-11-19T02:10:08.286Z,97954.66
2022-11-19T02:13:13.463Z,97959.84
2022-11-19T02:16:21.063Z,97958.16
2022-11-19T02:19:44.136Z,97958.19
2022-11-19T02:23:04.675Z,97959.94
2022-11-19T02:26:19.294Z,97957.31
2022-11-19T02:29:31.435Z,97956.56
2022-11-19T02:32:41.963Z,97958.38
2022-11-19T02:35:47.516Z,97958.38
2022-11-19T02:38:52.066Z,97966.28
2022-11-19T02:41:56.125Z,97978.50
2022-11-19T02:44:59.413Z,97975.09
2022-11-19T02:48:05.433Z,97979.53
2022-11-19T02:51:07.962Z,97975.28
2022-11-19T02:54:09.534Z,97971.75
2022-11-19T02:57:12.030Z,97971.81
2022-11-19T03:00:33.153Z,97980.47
2022-11-19T03:03:55.216Z,97981.44
2022-11-19T03:06:58.318Z,97978.84
2022-11-19T03:10:02.687Z,97980.59
2022-11-19T03:13:29.481Z,97981.56
2022-11-19T03:16:41.973Z,97995.50
2022-11-19T03:19:46.818Z,97998.13
2022-11-19T03:22:51.711Z,98003.41
2022-11-19T03:25:55.700Z,98012.16
2022-11-19T03:28:59.368Z,98006.94
2022-11-19T03:32:03.653Z,98008.69
2022-11-19T03:35:08.901Z,98011.34
2022-11-19T03:38:11.934Z,98000.94
2022-11-19T03:41:15.628Z,98012.31
2022-11-19T03:44:20.032Z,98006.25
2022-11-19T03:47:24.745Z,98013.22
2022-11-19T03:50:29.906Z,98009.81
2022-11-19T03:53:31.540Z,98015.88
2022-11-19T03:56:35.208Z,98009.81
2022-11-19T03:59:38.774Z,98016.81
2022-11-19T04:02:40.553Z,98016.84
2022-11-19T04:05:44.022Z,98016.88
2022-11-19T04:08:45.793Z,98006.47
2022-11-19T04:14:48.235Z,98023.06
2022-11-19T04:17:49.776Z,98016.09
2022-11-19T04:20:52.789Z,98022.22
2022-11-19T04:23:54.454Z,98016.19
2022-11-19T04:26:56.087Z,98024.91
2022-11-19T04:29:57.759Z,98038.03
2022-11-19T04:32:59.211Z,98031.94
2022-11-19T04:36:02.231Z,98043.25
2022-11-19T04:39:03.825Z,98041.50
2022-11-19T04:42:05.483Z,98042.34
2022-11-19T04:45:07.639Z,98043.22
2022-11-19T04:48:09.247Z,98040.63
2022-11-19T04:51:12.155Z,98050.22
2022-11-19T04:54:13.744Z,98045.88
2022-11-19T04:57:15.566Z,98045.03
2022-11-19T05:00:17.799Z,98046.75
2022-11-19T05:03:19.308Z,98040.69
2022-11-19T05:06:22.239Z,98042.41
2022-11-19T05:09:23.752Z,98040.69
2022-11-19T05:12:25.689Z,98046.81
2022-11-19T05:15:27.192Z,98060.78
2022-11-19T05:18:28.812Z,98052.06
2022-11-19T05:21:31.742Z,98058.16
2022-11-19T05:24:33.443Z,98059.06
2022-11-19T05:27:35.389Z,98067.78
2022-11-19T05:30:37.029Z,98061.72
2022-11-19T05:33:38.637Z,98072.19
2022-11-19T05:36:41.692Z,98069.56
2022-11-19T05:39:43.365Z,98068.69
2022-11-19T05:42:44.921Z,98073.06
2022-11-19T05:45:46.550Z,98072.19
2022-11-19T05:48:48.184Z,98081.78
2022-11-19T05:51:51.200Z,98087.00
2022-11-19T05:54:52.755Z,98092.25
2022-11-19T05:57:54.438Z,98087.91
2022-11-19T06:00:56.213Z,98083.53
2022-11-19T06:03:57.805Z,98100.13
2022-11-19T06:07:00.833Z,98099.22
2022-11-19T06:10:02.510Z,98096.63
2022-11-19T06:13:04.179Z,98099.22
2022-11-19T06:16:09.083Z,98088.78
2022-11-19T06:19:11.072Z,98097.47
2022-11-19T06:22:14.110Z,98094.00
2022-11-19T06:25:15.701Z,98099.25
2022-11-19T06:28:17.361Z,98094.88
2022-11-19T06:31:19.361Z,98101.00
2022-11-19T06:34:21.150Z,98101.88
2022-11-19T06:37:24.250Z,98096.66
2022-11-19T06:40:25.863Z,98107.97
2022-11-19T06:43:27.458Z,98105.34
2022-11-19T06:46:29.180Z,98105.34
2022-11-19T06:49:30.680Z,98112.31
2022-11-19T06:52:33.538Z,98108.00
2022-11-19T06:55:35.186Z,98118.41
2022-11-19T06:58:36.708Z,98123.63
2022-11-19T07:01:38.371Z,98131.50
2022-11-19T07:04:40.249Z,98137.56
2022-11-19T07:07:43.259Z,98142.78
2022-11-19T07:10:44.900Z,98144.53
2022-11-19T07:14:01.761Z,98151.50
2022-11-19T07:17:03.472Z,98150.59
2022-11-19T07:20:05.691Z,98159.31
2022-11-19T07:23:11.070Z,98158.44
2022-11-19T07:26:12.755Z,98170.63
2022-11-19T07:29:14.998Z,98169.75
2022-11-19T07:32:16.645Z,98173.22
2022-11-19T07:35:18.370Z,98180.19
2022-11-19T07:38:21.192Z,98174.09
2022-11-19T07:41:41.278Z,98191.50
2022-11-19T07:44:42.882Z,98193.22
2022-11-19T07:47:44.393Z,98199.34
2022-11-19T07:50:55.152Z,98198.47
2022-11-19T07:53:59.218Z,98195.84
2022-11-19T07:57:00.927Z,98201.06
2022-11-19T08:00:03.101Z,98201.06
2022-11-19T08:03:05.564Z,98195.88
2022-11-19T08:06:08.530Z,98203.69
2022-11-19T08:09:11.491Z,98196.72
2022-11-19T08:12:13.056Z,98210.63
2022-11-19T08:15:14.685Z,98208.00
2022-11-19T08:18:17.348Z,98204.53
2022-11-19T08:21:18.855Z,98207.13
2022-11-19T08:24:22.703Z,98210.59
2022-11-19T08:27:27.216Z,98208.81
2022-11-19T08:30:28.758Z,98207.03
2022-11-19T08:33:30.263Z,98208.78
2022-11-19T08:36:31.901Z,98213.97
2022-11-19T08:39:34.911Z,98210.47
2022-11-19T08:42:55.239Z,98206.97
2022-11-19T08:45:56.903Z,98204.38
2022-11-19T08:48:59.655Z,98205.25
2022-11-19T08:52:01.465Z,98206.16
2022-11-19T08:55:04.906Z,98207.94
2022-11-19T08:58:07.070Z,98218.44
2022-11-19T09:01:09.983Z,98217.56
2022-11-19T09:04:11.925Z,98219.25
2022-11-19T09:07:13.801Z,98219.25
2022-11-19T09:10:17.732Z,98229.69
2022-11-19T09:13:19.365Z,98222.63
2022-11-19T09:16:20.892Z,98220.88
2022-11-19T09:19:22.445Z,98219.94
2022-11-19T09:22:23.992Z,98219.91
2022-11-19T09:25:26.946Z,98223.41
2022-11-19T09:28:29.100Z,98221.63
2022-11-19T09:31:30.663Z,98215.44
2022-11-19T09:34:32.244Z,98218.00
2022-11-19T09:37:36.468Z,98220.53
2022-11-19T09:40:43.615Z,98214.47
2022-11-19T09:43:47.416Z,98210.94
2022-11-19T09:46:53.812Z,98206.56
2022-11-19T09:50:02.936Z,98215.28
2022-11-19T09:53:07.437Z,98215.25
2022-11-19T09:56:13.993Z,98220.50
2022-11-19T09:59:20.285Z,98215.28
2022-11-19T10:02:22.886Z,98225.66
2022-11-19T10:05:29.283Z,98233.50
2022-11-19T10:08:37.790Z,98230.03
2022-11-19T10:11:48.896Z,98224.72
2022-11-19T10:15:03.926Z,98224.47
2022-11-19T10:18:12.139Z,98220.91
2022-11-19T10:21:18.901Z,98222.69
2022-11-19T10:24:23.718Z,98223.47
2022-11-19T10:27:29.746Z,98225.25
2022-11-19T10:30:31.515Z,98228.81
2022-11-19T10:33:35.106Z,98212.97
2022-11-19T10:36:41.199Z,98215.59
2022-11-19T10:39:44.413Z,98211.09
2022-11-19T10:42:49.447Z,98204.03
2022-11-19T10:45:50.925Z,98208.28
2022-11-19T10:48:55.182Z,98203.13
2022-11-19T10:51:59.212Z,98204.78
2022-11-19T10:55:05.199Z,98203.78
2022-11-19T10:58:10.984Z,98203.78
2022-11-19T11:01:14.691Z,98196.91
2022-11-19T11:04:18.726Z,98200.44
2022-11-19T11:07:21.272Z,98196.81
2022-11-19T11:10:27.613Z,98195.91
2022-11-19T11:13:55.110Z,98194.16
2022-11-19T11:16:56.898Z,98181.63
2022-11-19T11:20:00.060Z,98185.16
2022-11-19T11:23:06.809Z,98174.66
2022-11-19T11:26:09.659Z,98183.47
2022-11-19T11:29:26.408Z,98178.88
2022-11-19T11:32:28.355Z,98174.44
2022-11-19T11:35:32.164Z,98170.06
2022-11-19T11:38:40.708Z,98164.00
2022-11-19T11:45:08.389Z,98163.88
2022-11-19T11:48:18.994Z,98154.38
2022-11-19T11:51:28.488Z,98158.00
2022-11-19T11:54:30.466Z,98147.56
2022-11-19T11:57:33.789Z,98151.88
2022-11-19T12:00:38.033Z,98152.75
2022-11-19T12:03:55.236Z,98154.41
2022-11-19T12:07:07.434Z,98151.84
2022-11-19T12:10:22.642Z,98151.00
2022-11-19T12:13:42.146Z,98157.91
2022-11-19T12:16:51.727Z,98149.06
2022-11-19T12:20:02.713Z,98149.03
2022-11-19T12:23:13.615Z,98154.13
2022-11-19T12:26:20.653Z,98151.47
2022-11-19T12:29:27.159Z,98150.56
2022-11-19T12:32:42.205Z,98156.81
2022-11-19T12:35:51.024Z,98154.13
2022-11-19T12:38:58.761Z,98162.59
2022-11-19T12:42:07.408Z,98160.06
2022-11-19T12:45:14.472Z,98157.31
2022-11-19T12:48:32.268Z,98167.06
2022-11-19T12:51:42.756Z,98167.84
2022-11-19T12:54:51.607Z,98170.38
2022-11-19T12:57:58.780Z,98161.59
2022-11-19T13:01:04.180Z,98154.53
2022-11-19T13:04:11.903Z,98157.94
2022-11-19T13:07:14.989Z,98157.94
2022-11-19T13:10:18.642Z,98158.69
2022-11-19T13:13:27.069Z,98149.94
2022-11-19T13:16:30.730Z,98156.00
2022-11-19T13:19:36.613Z,98147.34
2022-11-19T13:22:41.096Z,98148.16
2022-11-19T13:25:45.478Z,98146.38
2022-11-19T13:28:48.649Z,98148.97
2022-11-19T13:31:51.954Z,98148.03
2022-11-19T13:35:11.034Z,98145.53
2022-11-19T13:38:16.024Z,98156.88
2022-11-19T13:41:20.673Z,98153.41
2022-11-19T13:44:40.740Z,98149.03
2022-11-19T13:47:44.621Z,98153.38
2022-11-19T13:50:50.471Z,98139.34
2022-11-19T13:53:52.553Z,98132.47
2022-11-19T13:56:56.939Z,98128.22
2022-11-19T14:00:00.804Z,98129.06
2022-11-19T14:03:15.691Z,98129.16
2022-11-19T14:06:35.140Z,98121.44
2022-11-19T14:09:41.115Z,98132.94
2022-11-19T14:12:56.929Z,98129.59
2022-11-19T14:16:25.463Z,98129.66
2022-11-19T14:19:46.503Z,98125.34
2022-11-19T14:23:13.184Z,98122.69
2022-11-19T14:26:52.190Z,98119.16
2022-11-19T14:29:56.252Z,98122.72
2022-11-19T14:32:57.915Z,98119.28
2022-11-19T14:35:59.556Z,98127.25
2022-11-19T14:39:02.874Z,98125.59
2022-11-19T14:42:16.142Z,98130.97
2022-11-19T14:45:18.521Z,98134.53
2022-11-19T14:48:20.428Z,98134.59
2022-11-19T14:51:27.534Z,98134.66
2022-11-19T14:54:32.684Z,98132.97
2022-11-19T14:57:38.475Z,98124.28
2022-11-19T15:00:41.166Z,98132.22
2022-11-19T15:03:47.835Z,98138.47
2022-11-19T15:06:50.318Z,98126.31
2022-11-19T15:09:53.194Z,98125.47
2022-11-19T15:13:18.848Z,98121.13
2022-11-19T15:16:24.154Z,98128.16
2022-11-19T15:19:34.330Z,98138.72
2022-11-19T15:22:42.187Z,98133.56
2022-11-19T15:25:49.068Z,98130.19
2022-11-19T15:29:00.007Z,98129.34
2022-11-19T15:32:15.776Z,98119.75
2022-11-19T15:35:31.133Z,98120.63
2022-11-19T15:38:35.977Z,98119.78
2022-11-19T15:41:40.531Z,98115.44
2022-11-19T15:44:45.434Z,98111.94
2022-11-19T15:47:52.728Z,98105.09
2022-11-19T15:50:54.603Z,98107.78
2022-11-19T15:54:01.923Z,98098.19
2022-11-19T15:57:05.692Z,98092.97
2022-11-19T16:00:16.202Z,98093.81
2022-11-19T16:06:27.080Z,98091.22
2022-11-19T16:09:29.495Z,98097.31
2022-11-19T16:12:49.545Z,98102.56
2022-11-19T16:16:10.192Z,98106.06
2022-11-19T16:19:13.045Z,98105.25
2022-11-19T16:22:16.706Z,98107.03
2022-11-19T16:25:23.386Z,98108.78
2022-11-19T16:28:25.963Z,98111.47
2022-11-19T16:31:29.659Z,98108.03
2022-11-19T16:34:32.657Z,98105.41
2022-11-19T16:37:36.003Z,98103.63
2022-11-19T16:41:07.005Z,98107.09
2022-11-19T16:44:11.730Z,98115.03
2022-11-19T16:47:20.877Z,98119.41
2022-11-19T16:50:27.439Z,98113.34
2022-11-19T16:57:00.453Z,98119.50
2022-11-19T17:00:04.586Z,98114.34
2022-11-19T17:03:16.781Z,98110.88
2022-11-19T17:06:20.294Z,98119.59
2022-11-19T17:09:41.857Z,98110.91
2022-11-19T17:12:50.647Z,98116.13
2022-11-19T17:15:52.302Z,98110.03
2022-11-19T17:18:53.786Z,98114.41
2022-11-19T17:21:56.739Z,98110.94
2022-11-19T17:25:01.064Z,98109.25
2022-11-19T17:28:04.242Z,98100.53
2022-11-19T17:31:07.244Z,98106.69
2022-11-19T17:34:11.863Z,98107.56
2022-11-19T17:37:13.339Z,98108.44
2022-11-19T17:40:17.473Z,98105.81
2022-11-19T17:43:41.121Z,98102.34
2022-11-19T17:46:42.579Z,98103.22
2022-11-19T17:49:45.685Z,98106.69
2022-11-19T17:52:47.121Z,98114.53
2022-11-19T17:55:49.851Z,98115.41
2022-11-19T17:58:53.003Z,98124.13
2022-11-19T18:01:57.774Z,98110.22
2022-11-19T18:04:59.478Z,98121.56
2022-11-19T18:08:01.043Z,98125.91
2022-11-19T18:11:04.027Z,98125.06
2022-11-19T18:14:10.317Z,98133.78
2022-11-19T18:17:12.361Z,98129.47
2022-11-19T18:20:14.048Z,98134.69
2022-11-19T18:23:15.827Z,98130.34
2022-11-19T18:26:18.820Z,98133.88
2022-11-19T18:29:22.899Z,98133.00
2022-11-19T18:32:24.720Z,98131.25
2022-11-19T18:35:27.947Z,98130.41
2022-11-19T18:38:29.472Z,98136.53
2022-11-19T18:41:32.023Z,98129.56
2022-11-19T18:44:34.943Z,98126.97
2022-11-19T18:47:36.449Z,98126.06
2022-11-19T18:50:37.933Z,98120.88
2022-11-19T18:53:39.753Z,98125.25
2022-11-19T18:56:41.343Z,98120.94
2022-11-19T18:59:44.275Z,98116.59
2022-11-19T19:02:45.777Z,98124.41
2022-11-19T19:05:47.372Z,98122.66
2022-11-19T19:08:49.662Z,98130.50
2022-11-19T19:12:13.551Z,98134.84
2022-11-19T19:15:16.924Z,98134.00
2022-11-19T19:18:19.229Z,98138.34
2022-11-19T19:21:23.975Z,98129.63
2022-11-19T19:24:25.546Z,98130.53
2022-11-19T19:27:27.018Z,98135.75
2022-11-19T19:30:30.085Z,98134.91
2022-11-19T19:33:32.027Z,98134.91
2022-11-19T19:36:33.516Z,98134.94
2022-11-19T19:39:35.151Z,98136.66
2022-11-19T19:42:41.045Z,98123.59
2022-11-19T19:45:44.318Z,98119.22
2022-11-19T19:48:46.496Z,98121.84
2022-11-19T19:51:48.025Z,98122.72
2022-11-19T19:54:49.604Z,98124.47
2022-11-19T19:57:51.657Z,98130.56
2022-11-19T20:00:54.612Z,98137.50
2022-11-19T20:04:00.608Z,98134.94
2022-11-19T20:07:02.242Z,98118.38
2022-11-19T20:10:04.354Z,98123.59
2022-11-19T20:13:24.659Z,98127.97
2022-11-19T20:16:28.790Z,98129.72
2022-11-19T20:19:30.767Z,98121.00
2022-11-19T20:22:32.946Z,98130.56
2022-11-19T20:25:34.416Z,98126.22
2022-11-19T20:28:36.015Z,98123.59
2022-11-19T20:31:39.023Z,98125.34
2022-11-19T20:34:40.691Z,98116.63
2022-11-19T20:37:42.188Z,98108.84
2022-11-19T20:40:44.166Z,98116.69
2022-11-19T20:44:04.746Z,98109.72
2022-11-19T20:47:07.644Z,98104.47
2022-11-19T20:50:09.347Z,98103.59
2022-11-19T20:53:10.973Z,98107.09
2022-11-19T20:56:13.267Z,98105.38
2022-11-19T20:59:15.130Z,98107.09
2022-11-19T21:02:18.334Z,98102.78
2022-11-19T21:05:20.140Z,98101.03
2022-11-19T21:08:21.982Z,98102.78
2022-11-19T21:11:24.601Z,98102.78
2022-11-19T21:14:26.114Z,98101.91
2022-11-19T21:17:29.211Z,98111.47
2022-11-19T21:20:31.354Z,98107.09
2022-11-19T21:23:33.388Z,98097.53
2022-11-19T21:26:34.992Z,98100.16
2022-11-19T21:29:38.503Z,98094.06
2022-11-19T21:32:41.332Z,98094.06
2022-11-19T21:35:42.773Z,98091.44
2022-11-19T21:38:44.225Z,98093.19
2022-11-19T21:41:45.974Z,98090.59
2022-11-19T21:44:47.455Z,98092.31
2022-11-19T21:47:50.332Z,98093.19
2022-11-19T21:50:52.506Z,98079.28
2022-11-19T21:53:54.457Z,98090.59
2022-11-19T21:56:56.551Z,98082.75
2022-11-19T21:59:57.991Z,98083.63
2022-11-19T22:03:01.286Z,98082.75
2022-11-19T22:06:03.565Z,98083.63
2022-11-19T22:09:05.407Z,98079.28
2022-11-19T22:12:06.970Z,98078.44
2022-11-19T22:15:09.648Z,98081.03
2022-11-19T22:18:12.871Z,98081.91
2022-11-19T22:21:14.523Z,98071.47
2022-11-19T22:24:16.261Z,98081.03
2022-11-19T22:27:17.733Z,98076.69
2022-11-19T22:30:19.407Z,98083.63
2022-11-19T22:33:22.394Z,98081.88
2022-11-19T22:36:23.991Z,98079.31
2022-11-19T22:39:25.817Z,98081.88
2022-11-19T22:42:27.428Z,98084.50
2022-11-19T22:45:29.021Z,98081.03
2022-11-19T22:48:32.383Z,98082.75
2022-11-19T22:51:33.879Z,98077.53
2022-11-19T22:54:41.239Z,98076.69
2022-11-19T22:57:43.235Z,98085.38
2022-11-19T23:00:46.385Z,98087.13
2022-11-19T23:03:49.450Z,98082.75
2022-11-19T23:06:51.636Z,98081.03
2022-11-19T23:09:53.165Z,98081.00
2022-11-19T23:13:13.308Z,98074.94
2022-11-19T23:16:15.622Z,98067.09
2022-11-19T23:19:19.673Z,98058.41
2022-11-19T23:22:21.571Z,98068.00
2022-11-19T23:25:23.257Z,98067.97
2022-11-19T23:28:25.057Z,98057.56
2022-11-19T23:31:27.127Z,98060.16
2022-11-19T23:34:29.989Z,98048.84
2022-11-19T23:37:31.555Z,98058.41
2022-11-19T23:40:33.018Z,98053.19
2022-11-19T23:43:35.187Z,98049.72
2022-11-19T23:46:37.274Z,98047.09
2022-11-19T23:49:40.289Z,98045.38
2022-11-19T23:52:41.854Z,98041.88
2022-11-19T23:55:45.395Z,98042.75
2022-11-19T23:58:46.950Z,98036.66
